createdAt,value
2023-01-12T00:00:00.508Z,7.51
2023-01-12T00:02:29.851Z,7.49
2023-01-12T00:04:59.213Z,7.52
2023-01-12T00:07:29.256Z,7.48
2023-01-12T00:09:58.480Z,7.47
2023-01-12T00:12:28.025Z,7.48
2023-01-12T00:14:57.480Z,7.44
2023-01-12T00:17:27.002Z,7.52
2023-01-12T00:19:56.425Z,7.48
2023-01-12T00:22:25.621Z,7.54
2023-01-12T00:24:55.969Z,7.58
2023-01-12T00:27:25.147Z,7.55
2023-01-12T00:29:54.668Z,7.49
2023-01-12T00:32:23.990Z,7.57
2023-01-12T00:34:53.246Z,7.55
2023-01-12T00:37:24.222Z,7.56
2023-01-12T00:40:01.857Z,7.57
2023-01-12T00:42:42.742Z,7.61
2023-01-12T00:45:25.032Z,7.63
2023-01-12T00:47:54.699Z,7.62
2023-01-12T00:50:24.447Z,7.56
2023-01-12T00:52:53.927Z,7.66
2023-01-12T00:55:23.420Z,7.63
2023-01-12T00:57:53.493Z,7.62
2023-01-12T01:00:22.811Z,7.62
2023-01-12T01:02:52.105Z,7.62
2023-01-12T01:05:21.427Z,7.59
2023-01-12T01:07:50.979Z,7.60
2023-01-12T01:10:20.591Z,7.63
2023-01-12T01:12:50.322Z,7.59
2023-01-12T01:15:19.629Z,7.55
2023-01-12T01:17:49.101Z,7.62
2023-01-12T01:20:19.317Z,7.62
2023-01-12T01:22:48.779Z,7.64
2023-01-12T01:25:18.383Z,7.63
2023-01-12T01:27:47.736Z,7.58
2023-01-12T01:30:17.770Z,7.55
2023-01-12T01:32:47.253Z,7.58
2023-01-12T01:35:16.895Z,7.53
2023-01-12T01:37:46.129Z,7.55
2023-01-12T01:40:15.444Z,7.56
2023-01-12T01:42:44.707Z,7.58
2023-01-12T01:45:16.810Z,7.59
2023-01-12T01:47:48.922Z,7.56
2023-01-12T01:50:29.929Z,7.55
2023-01-12T01:53:02.198Z,7.49
2023-01-12T01:55:36.942Z,7.42
2023-01-12T01:58:14.809Z,7.45
2023-01-12T02:00:45.573Z,7.45
2023-01-12T02:03:15.503Z,7.48
2023-01-12T02:05:47.051Z,7.40
2023-01-12T02:08:19.414Z,7.40
2023-01-12T02:10:48.915Z,7.40
2023-01-12T02:13:37.346Z,7.37
2023-01-12T02:16:21.848Z,7.37
2023-01-12T02:19:11.090Z,7.34
2023-01-12T02:21:52.516Z,7.32
2023-01-12T02:24:39.821Z,7.31
2023-01-12T02:27:39.609Z,7.30
2023-01-12T02:30:30.141Z,7.34
2023-01-12T02:33:08.360Z,7.31
2023-01-12T02:36:03.250Z,7.30
2023-01-12T02:38:50.609Z,7.30
2023-01-12T02:41:55.986Z,7.32
2023-01-12T02:44:37.287Z,7.35
2023-01-12T02:47:09.699Z,7.34
2023-01-12T02:49:42.576Z,7.34
2023-01-12T02:52:14.389Z,7.31
2023-01-12T02:54:46.281Z,7.31
2023-01-12T02:57:16.153Z,7.33
2023-01-12T02:59:46.636Z,7.31
2023-01-12T03:02:21.349Z,7.34
2023-01-12T03:04:51.046Z,7.33
2023-01-12T03:07:35.271Z,7.29
2023-01-12T03:10:22.761Z,7.33
2023-01-12T03:12:52.251Z,7.31
2023-01-12T03:15:23.103Z,7.30
2023-01-12T03:17:55.510Z,7.30
2023-01-12T03:20:32.963Z,7.30
2023-01-12T03:23:11.422Z,7.30
2023-01-12T03:25:43.171Z,7.34
2023-01-12T03:28:14.243Z,7.34
2023-01-12T03:30:46.484Z,7.35
2023-01-12T03:33:15.775Z,7.28
2023-01-12T03:35:54.073Z,7.31
2023-01-12T03:38:29.386Z,7.26
2023-01-12T03:41:01.339Z,7.27
2023-01-12T03:43:33.480Z,7.31
2023-01-12T03:46:06.069Z,7.30
2023-01-12T03:48:38.160Z,7.25
2023-01-12T03:51:13.137Z,7.30
2023-01-12T03:53:44.014Z,7.31
2023-01-12T03:56:14.709Z,7.36
2023-01-12T03:58:44.757Z,7.29
2023-01-12T04:01:14.796Z,7.28
2023-01-12T04:03:44.295Z,7.31
2023-01-12T04:06:13.954Z,7.32
2023-01-12T04:08:43.307Z,7.38
2023-01-12T04:11:31.039Z,7.38
2023-01-12T04:14:00.249Z,7.38
2023-01-12T04:16:29.749Z,7.39
2023-01-12T04:18:59.329Z,7.36
2023-01-12T04:21:46.422Z,7.40
2023-01-12T04:24:15.776Z,7.45
2023-01-12T04:26:45.791Z,7.41
2023-01-12T04:29:15.414Z,7.41
2023-01-12T04:31:44.694Z,7.47
2023-01-12T04:34:14.238Z,7.46
2023-01-12T04:36:44.201Z,7.50
2023-01-12T04:39:13.599Z,7.48
2023-01-12T04:41:43.064Z,7.45
2023-01-12T04:44:12.721Z,7.47
2023-01-12T04:46:41.927Z,7.44
2023-01-12T04:49:11.392Z,7.47
2023-01-12T04:51:40.581Z,7.47
2023-01-12T04:54:11.256Z,7.46
2023-01-12T04:56:40.646Z,7.40
2023-01-12T04:59:10.835Z,7.45
2023-01-12T05:01:40.537Z,7.47
2023-01-12T05:04:10.207Z,7.45
2023-01-12T05:06:40.007Z,7.43
2023-01-12T05:09:28.201Z,7.40
2023-01-12T05:11:57.631Z,7.47
2023-01-12T05:14:26.854Z,7.46
2023-01-12T05:16:56.652Z,7.48
2023-01-12T05:19:25.939Z,7.50
2023-01-12T05:21:55.116Z,7.45
2023-01-12T05:24:24.352Z,7.52
2023-01-12T05:26:53.727Z,7.49
2023-01-12T05:29:23.084Z,7.52
2023-01-12T05:31:52.449Z,7.55
2023-01-12T05:34:21.861Z,7.56
2023-01-12T05:36:51.336Z,7.51
2023-01-12T05:39:21.846Z,7.49
2023-01-12T05:42:09.091Z,7.53
2023-01-12T05:44:38.328Z,7.57
2023-01-12T05:47:07.514Z,7.56
2023-01-12T05:49:36.871Z,7.54
2023-01-12T05:52:06.127Z,7.57
2023-01-12T05:54:35.748Z,7.61
2023-01-12T05:57:05.001Z,7.59
2023-01-12T05:59:34.241Z,7.64
2023-01-12T06:02:03.510Z,7.63
2023-01-12T06:04:32.822Z,7.71
2023-01-12T06:07:02.357Z,7.74
2023-01-12T06:09:31.664Z,7.82
2023-01-12T06:12:19.114Z,7.85
2023-01-12T06:14:48.379Z,7.78
2023-01-12T06:17:17.645Z,7.88
2023-01-12T06:19:47.076Z,7.97
2023-01-12T06:22:16.283Z,8.04
2023-01-12T06:24:47.328Z,8.06
2023-01-12T06:27:17.453Z,8.04
2023-01-12T06:29:46.849Z,8.08
2023-01-12T06:32:16.155Z,8.15
2023-01-12T06:34:45.710Z,8.13
2023-01-12T06:37:15.371Z,8.13
2023-01-12T06:39:44.619Z,8.24
2023-01-12T06:42:28.989Z,8.24
2023-01-12T06:44:59.027Z,8.25
2023-01-12T06:47:30.350Z,8.24
2023-01-12T06:49:59.690Z,8.29
2023-01-12T06:52:30.364Z,8.28
2023-01-12T06:54:59.897Z,8.34
2023-01-12T06:57:29.399Z,8.36
2023-01-12T06:59:58.881Z,8.38
2023-01-12T07:02:28.214Z,8.36
2023-01-12T07:04:57.429Z,8.36
2023-01-12T07:07:26.729Z,8.37
2023-01-12T07:09:56.570Z,8.43
2023-01-12T07:12:25.797Z,8.46
2023-01-12T07:14:56.296Z,8.45
2023-01-12T07:17:25.676Z,8.45
2023-01-12T07:19:55.281Z,8.47
2023-01-12T07:22:26.542Z,8.46
2023-01-12T07:24:57.776Z,8.54
2023-01-12T07:27:27.206Z,8.58
2023-01-12T07:29:56.980Z,8.59
2023-01-12T07:32:29.617Z,8.60
2023-01-12T07:34:59.387Z,8.64
2023-01-12T07:37:28.616Z,8.66
2023-01-12T07:39:59.161Z,8.70
2023-01-12T07:42:28.592Z,8.75
2023-01-12T07:44:59.031Z,8.68
2023-01-12T07:47:28.238Z,8.72
2023-01-12T07:49:57.584Z,8.77
2023-01-12T07:52:26.795Z,8.80
2023-01-12T07:54:56.779Z,8.81
2023-01-12T07:57:26.089Z,8.82
2023-01-12T07:59:55.294Z,8.86
2023-01-12T08:02:24.588Z,8.80
2023-01-12T08:04:54.772Z,8.77
2023-01-12T08:07:24.292Z,8.79
2023-01-12T08:09:53.493Z,8.89
2023-01-12T08:12:22.718Z,8.93
2023-01-12T08:14:51.913Z,8.90
2023-01-12T08:17:22.678Z,8.94
2023-01-12T08:20:01.074Z,8.89
2023-01-12T08:22:34.083Z,8.92
2023-01-12T08:25:06.374Z,8.98
2023-01-12T08:27:37.970Z,9.02
2023-01-12T08:30:08.634Z,9.06
2023-01-12T08:32:38.056Z,9.07
2023-01-12T08:35:08.109Z,9.06
2023-01-12T08:37:37.804Z,9.09
2023-01-12T08:40:08.264Z,9.08
2023-01-12T08:42:37.780Z,9.08
2023-01-12T08:45:08.139Z,9.12
2023-01-12T08:47:37.843Z,9.15
2023-01-12T08:50:08.964Z,9.19
2023-01-12T08:52:38.281Z,9.18
2023-01-12T08:55:10.113Z,9.18
2023-01-12T08:57:39.811Z,9.13
2023-01-12T09:00:10.460Z,9.23
2023-01-12T09:02:39.822Z,9.22
2023-01-12T09:05:10.077Z,9.23
2023-01-12T09:07:39.851Z,9.16
2023-01-12T09:10:09.905Z,9.18
2023-01-12T09:12:39.117Z,9.12
2023-01-12T09:15:09.233Z,9.15
2023-01-12T09:17:38.847Z,9.13
2023-01-12T09:20:08.669Z,9.16
2023-01-12T09:22:38.101Z,9.17
2023-01-12T09:25:07.610Z,9.15
2023-01-12T09:27:36.848Z,9.18
2023-01-12T09:30:07.791Z,9.20
2023-01-12T09:32:37.285Z,9.21
2023-01-12T09:35:07.133Z,9.27
2023-01-12T09:37:38.063Z,9.25
2023-01-12T09:40:08.629Z,9.29
2023-01-12T09:42:56.511Z,9.27
2023-01-12T09:45:44.661Z,9.28
2023-01-12T09:48:15.230Z,9.28
2023-01-12T09:50:47.870Z,9.29
2023-01-12T09:53:26.799Z,9.29
2023-01-12T09:56:03.139Z,9.32
2023-01-12T09:59:06.353Z,9.33
2023-01-12T10:01:35.640Z,9.32
2023-01-12T10:04:05.021Z,9.33
2023-01-12T10:06:35.619Z,9.33
2023-01-12T10:09:09.179Z,9.33
2023-01-12T10:11:56.226Z,9.34
2023-01-12T10:14:46.063Z,9.33
2023-01-12T10:17:23.404Z,9.35
2023-01-12T10:20:11.388Z,9.36
2023-01-12T10:22:55.593Z,9.38
2023-01-12T10:25:48.927Z,9.37
2023-01-12T10:28:33.600Z,9.39
2023-01-12T10:31:03.167Z,9.40
2023-01-12T10:33:34.552Z,9.39
2023-01-12T10:36:20.709Z,9.41
2023-01-12T10:39:02.497Z,9.42
2023-01-12T10:41:34.412Z,9.41
2023-01-12T10:44:17.328Z,9.43
2023-01-12T10:46:49.830Z,9.43
2023-01-12T10:49:24.328Z,9.40
2023-01-12T10:51:58.805Z,9.38
2023-01-12T10:54:33.593Z,9.39
2023-01-12T10:57:06.418Z,9.40
2023-01-12T10:59:38.578Z,9.43
2023-01-12T11:02:14.519Z,9.45
2023-01-12T11:04:48.829Z,9.42
2023-01-12T11:07:22.961Z,9.46
2023-01-12T11:09:52.411Z,9.48
2023-01-12T11:12:33.856Z,9.49
2023-01-12T11:15:12.387Z,9.47
2023-01-12T11:18:12.351Z,9.49
2023-01-12T11:20:50.852Z,9.48
2023-01-12T11:23:38.522Z,9.46
2023-01-12T11:26:16.077Z,9.44
2023-01-12T11:28:48.489Z,9.44
2023-01-12T11:31:26.756Z,9.43
2023-01-12T11:34:02.157Z,9.46
2023-01-12T11:36:42.500Z,9.47
2023-01-12T11:39:14.298Z,9.46
2023-01-12T11:42:13.625Z,9.51
2023-01-12T11:45:04.016Z,9.51
2023-01-12T11:47:41.549Z,9.52
2023-01-12T11:50:30.570Z,9.51
2023-01-12T11:56:11.098Z,9.52
2023-01-12T11:59:01.033Z,9.52
2023-01-12T12:01:46.137Z,9.47
2023-01-12T12:04:30.238Z,9.48
2023-01-12T12:07:05.410Z,9.48
2023-01-12T12:10:00.962Z,9.52
2023-01-12T12:12:48.735Z,9.51
2023-01-12T12:15:30.205Z,9.51
2023-01-12T12:18:03.211Z,9.53
2023-01-12T12:20:38.393Z,9.57
2023-01-12T12:23:23.157Z,9.50
2023-01-12T12:25:55.536Z,9.55
2023-01-12T12:28:47.360Z,9.56
2023-01-12T12:31:42.734Z,9.63
2023-01-12T12:34:33.205Z,9.64
2023-01-12T12:37:14.547Z,9.61
2023-01-12T12:40:02.487Z,9.59
2023-01-12T12:43:04.351Z,9.60
2023-01-12T12:45:51.636Z,9.65
2023-01-12T12:48:32.963Z,9.62
2023-01-12T12:51:08.055Z,9.63
2023-01-12T12:53:41.927Z,9.63
2023-01-12T12:56:14.305Z,9.57
2023-01-12T12:58:46.162Z,9.60
2023-01-12T13:01:24.826Z,9.59
2023-01-12T13:03:56.336Z,9.59
2023-01-12T13:06:39.758Z,9.58
2023-01-12T13:09:15.178Z,9.60
2023-01-12T13:11:54.598Z,9.56
2023-01-12T13:14:41.510Z,9.58
2023-01-12T13:17:25.960Z,9.58
2023-01-12T13:20:16.621Z,9.57
2023-01-12T13:22:44.925Z,9.57
2023-01-12T13:25:23.918Z,9.53
2023-01-12T13:28:02.016Z,9.55
2023-01-12T13:30:35.260Z,9.54
2023-01-12T13:33:25.005Z,9.54
2023-01-12T13:36:03.169Z,9.51
2023-01-12T13:38:42.871Z,9.52
2023-01-12T13:41:19.619Z,9.52
2023-01-12T13:43:55.020Z,9.45
2023-01-12T13:46:30.139Z,9.45
2023-01-12T13:49:00.394Z,9.48
2023-01-12T13:51:40.677Z,9.45
2023-01-12T13:54:14.862Z,9.45
2023-01-12T13:56:44.432Z,9.46
2023-01-12T13:59:18.901Z,9.44
2023-01-12T14:01:49.854Z,9.49
2023-01-12T14:04:22.778Z,9.44
2023-01-12T14:07:23.073Z,9.44
2023-01-12T14:10:19.279Z,9.42
2023-01-12T14:13:21.363Z,9.39
2023-01-12T14:16:08.658Z,9.37
2023-01-12T14:18:45.956Z,9.33
2023-01-12T14:21:24.604Z,9.32
2023-01-12T14:23:54.916Z,9.28
2023-01-12T14:26:27.249Z,9.28
2023-01-12T14:28:56.696Z,9.28
2023-01-12T14:31:40.154Z,9.29
2023-01-12T14:34:24.565Z,9.28
2023-01-12T14:36:53.896Z,9.24
2023-01-12T14:39:25.818Z,9.23
2023-01-12T14:42:14.666Z,9.23
2023-01-12T14:45:15.268Z,9.27
2023-01-12T14:47:44.490Z,9.23
2023-01-12T14:50:16.620Z,9.25
2023-01-12T14:52:47.010Z,9.26
2023-01-12T14:55:22.017Z,9.20
2023-01-12T14:57:54.991Z,9.19
2023-01-12T15:00:26.828Z,9.19
2023-01-12T15:02:58.048Z,9.16
2023-01-12T15:05:29.122Z,9.15
2023-01-12T15:08:07.852Z,9.15
2023-01-12T15:10:39.860Z,9.11
2023-01-12T15:13:30.489Z,9.12
2023-01-12T15:16:18.835Z,9.10
2023-01-12T15:19:05.968Z,9.08
2023-01-12T15:21:54.086Z,9.11
2023-01-12T15:24:43.891Z,9.07
2023-01-12T15:27:15.138Z,9.07
2023-01-12T15:29:44.598Z,9.04
2023-01-12T15:32:46.990Z,9.06
2023-01-12T15:35:09.396Z,9.07
2023-01-12T15:37:38.602Z,9.06
2023-01-12T15:40:09.479Z,9.07
2023-01-12T15:42:38.987Z,9.07
2023-01-12T15:45:17.040Z,9.13
2023-01-12T15:47:47.922Z,9.11
2023-01-12T15:50:17.468Z,9.11
2023-01-12T15:52:48.606Z,9.14
2023-01-12T15:55:20.232Z,9.11
2023-01-12T15:57:51.429Z,9.20
2023-01-12T16:00:22.483Z,9.22
2023-01-12T16:02:53.170Z,9.16
2023-01-12T16:05:24.102Z,9.18
2023-01-12T16:07:53.495Z,9.21
2023-01-12T16:10:23.452Z,9.19
2023-01-12T16:12:52.671Z,9.22
2023-01-12T16:15:24.535Z,9.29
2023-01-12T16:17:53.816Z,9.22
2023-01-12T16:20:23.300Z,9.19
2023-01-12T16:22:52.720Z,9.26
2023-01-12T16:25:22.501Z,9.29
2023-01-12T16:27:52.181Z,9.27
2023-01-12T16:30:21.903Z,9.28
2023-01-12T16:32:51.555Z,9.27
2023-01-12T16:35:21.352Z,9.27
2023-01-12T16:37:54.772Z,9.28
2023-01-12T16:40:24.467Z,9.27
2023-01-12T16:42:54.057Z,9.26
2023-01-12T16:45:23.535Z,9.29
2023-01-12T16:47:54.386Z,9.24
2023-01-12T16:50:23.963Z,9.23
2023-01-12T16:52:53.727Z,9.24
2023-01-12T16:55:23.280Z,9.25
2023-01-12T16:57:52.903Z,9.26
2023-01-12T17:00:22.781Z,9.23
2023-01-12T17:02:52.507Z,9.27
2023-01-12T17:05:22.437Z,9.26
2023-01-12T17:07:54.280Z,9.25
2023-01-12T17:10:23.804Z,9.26
2023-01-12T17:12:59.029Z,9.29
2023-01-12T17:15:25.310Z,9.23
2023-01-12T17:17:55.557Z,9.25
2023-01-12T17:20:25.376Z,9.20
2023-01-12T17:22:54.868Z,9.25
2023-01-12T17:25:24.319Z,9.24
2023-01-12T17:27:54.253Z,9.23
2023-01-12T17:30:23.477Z,9.27
2023-01-12T17:32:53.151Z,9.22
2023-01-12T17:35:22.699Z,9.23
2023-01-12T17:37:52.006Z,9.27
2023-01-12T17:40:22.177Z,9.18
2023-01-12T17:43:03.201Z,9.24
2023-01-12T17:45:33.718Z,9.29
2023-01-12T17:48:02.972Z,9.28
2023-01-12T17:50:32.607Z,9.27
2023-01-12T17:53:01.942Z,9.23
2023-01-12T17:55:31.702Z,9.25
2023-01-12T17:58:00.947Z,9.27
2023-01-12T18:00:30.627Z,9.28
2023-01-12T18:03:00.472Z,9.32
2023-01-12T18:05:31.580Z,9.31
2023-01-12T18:08:01.263Z,9.39
2023-01-12T18:10:30.500Z,9.37
2023-01-12T18:12:59.777Z,9.35
2023-01-12T18:15:29.690Z,9.37
2023-01-12T18:17:58.953Z,9.38
2023-01-12T18:20:28.215Z,9.32
2023-01-12T18:22:57.544Z,9.36
2023-01-12T18:25:27.204Z,9.26
2023-01-12T18:27:56.513Z,9.33
2023-01-12T18:30:27.331Z,9.27
2023-01-12T18:32:56.602Z,9.29
2023-01-12T18:35:26.412Z,9.37
2023-01-12T18:37:55.725Z,9.36
2023-01-12T18:40:25.315Z,9.37
2023-01-12T18:42:55.730Z,9.31
2023-01-12T18:45:26.152Z,9.32
2023-01-12T18:48:13.658Z,9.28
2023-01-12T18:51:01.466Z,9.33
2023-01-12T18:53:32.553Z,9.28
2023-01-12T18:56:05.939Z,9.30
2023-01-12T18:58:37.200Z,9.38
2023-01-12T19:01:08.534Z,9.30
2023-01-12T19:03:38.135Z,9.34
2023-01-12T19:06:26.153Z,9.33
2023-01-12T19:09:14.364Z,9.35
2023-01-12T19:11:43.722Z,9.36
2023-01-12T19:14:31.205Z,9.38
2023-01-12T19:17:18.332Z,9.34
2023-01-12T19:19:48.197Z,9.30
2023-01-12T19:22:35.699Z,9.33
2023-01-12T19:25:24.101Z,9.27
2023-01-12T19:28:11.177Z,9.29
2023-01-12T19:30:40.790Z,9.25
2023-01-12T19:33:16.265Z,9.19
2023-01-12T19:35:47.103Z,9.13
2023-01-12T19:38:16.820Z,9.12
2023-01-12T19:40:48.364Z,9.13
2023-01-12T19:43:20.934Z,9.11
2023-01-12T19:45:53.838Z,9.17
2023-01-12T19:48:25.223Z,9.18
2023-01-12T19:50:54.943Z,9.18
2023-01-12T19:53:28.554Z,9.18
2023-01-12T19:55:58.783Z,9.19
2023-01-12T19:58:28.656Z,9.18
2023-01-12T20:00:58.158Z,9.24
2023-01-12T20:03:27.576Z,9.22
2023-01-12T20:05:57.221Z,9.25
2023-01-12T20:08:26.966Z,9.22
2023-01-12T20:10:58.707Z,9.28
2023-01-12T20:13:28.671Z,9.33
2023-01-12T20:15:58.158Z,9.28
2023-01-12T20:18:27.678Z,9.32
2023-01-12T20:20:58.870Z,9.31
2023-01-12T20:23:29.111Z,9.26
2023-01-12T20:25:59.559Z,9.29
2023-01-12T20:28:28.950Z,9.35
2023-01-12T20:30:59.469Z,9.34
2023-01-12T20:33:28.822Z,9.31
2023-01-12T20:35:58.458Z,9.46
2023-01-12T20:38:27.868Z,9.48
2023-01-12T20:40:57.193Z,9.42
2023-01-12T20:43:26.791Z,9.47
2023-01-12T20:45:56.279Z,9.34
2023-01-12T20:48:27.746Z,9.31
2023-01-12T20:50:57.661Z,9.19
2023-01-12T20:53:28.902Z,9.15
2023-01-12T20:55:58.507Z,9.12
2023-01-12T20:58:27.834Z,9.13
2023-01-12T21:00:57.429Z,9.15
2023-01-12T21:03:26.894Z,9.18
2023-01-12T21:05:56.232Z,9.19
2023-01-12T21:08:25.559Z,9.31
2023-01-12T21:10:55.546Z,9.24
2023-01-12T21:13:24.762Z,9.21
2023-01-12T21:16:01.765Z,9.33
2023-01-12T21:18:32.037Z,9.31
2023-01-12T21:21:01.793Z,9.35
2023-01-12T21:23:31.220Z,9.31
2023-01-12T21:26:01.012Z,9.32
2023-01-12T21:28:30.803Z,9.36
2023-01-12T21:31:04.205Z,9.30
2023-01-12T21:33:33.704Z,9.31
2023-01-12T21:36:03.067Z,9.32
2023-01-12T21:38:32.460Z,9.33
2023-01-12T21:41:04.083Z,9.38
2023-01-12T21:43:34.941Z,9.36
2023-01-12T21:46:07.119Z,9.35
2023-01-12T21:48:37.277Z,9.35
2023-01-12T21:51:08.930Z,9.37
2023-01-12T21:53:38.543Z,9.32
2023-01-12T21:56:08.160Z,9.20
2023-01-12T21:58:38.195Z,9.29
2023-01-12T22:01:15.393Z,9.28
2023-01-12T22:03:45.332Z,9.28
2023-01-12T22:06:14.847Z,9.26
2023-01-12T22:08:44.360Z,9.18
2023-01-12T22:11:16.711Z,9.11
2023-01-12T22:13:47.126Z,9.08
2023-01-12T22:16:16.809Z,8.99
2023-01-12T22:18:49.555Z,8.96
2023-01-12T22:21:20.786Z,8.94
2023-01-12T22:23:50.583Z,9.03
2023-01-12T22:26:20.195Z,9.01
2023-01-12T22:28:50.761Z,8.91
2023-01-12T22:31:22.554Z,8.95
2023-01-12T22:33:56.404Z,8.88
2023-01-12T22:36:26.266Z,8.81
2023-01-12T22:38:56.213Z,8.83
2023-01-12T22:41:26.159Z,8.76
2023-01-12T22:43:56.444Z,8.76
2023-01-12T22:46:28.117Z,8.77
2023-01-12T22:49:00.393Z,8.72
2023-01-12T22:51:31.407Z,8.67
2023-01-12T22:54:01.788Z,8.46
2023-01-12T22:56:31.026Z,8.42
2023-01-12T22:59:00.539Z,8.48
2023-01-12T23:01:29.707Z,8.42
2023-01-12T23:03:59.587Z,8.29
2023-01-12T23:06:28.773Z,8.32
2023-01-12T23:08:58.144Z,8.37
2023-01-12T23:11:27.782Z,8.27
2023-01-12T23:13:57.346Z,8.22
2023-01-12T23:16:27.174Z,8.24
2023-01-12T23:18:56.863Z,8.16
2023-01-12T23:21:28.757Z,8.24
2023-01-12T23:24:00.021Z,8.09
2023-01-12T23:26:31.840Z,8.01
2023-01-12T23:29:03.237Z,8.07
2023-01-12T23:31:34.064Z,7.99
2023-01-12T23:34:04.084Z,7.96
2023-01-12T23:36:33.256Z,7.82
2023-01-12T23:39:04.596Z,7.89
2023-01-12T23:41:35.812Z,7.76
2023-01-12T23:44:07.691Z,7.72
2023-01-12T23:46:40.247Z,7.63
2023-01-12T23:49:08.773Z,7.65
2023-01-12T23:51:37.859Z,7.51
2023-01-12T23:54:07.567Z,7.53
2023-01-12T23:56:36.828Z,7.48
2023-01-12T23:59:05.998Z,7.46
